sensor_id;sensor_type;location;lat;lon;timestamp;temperature;humidity
4643;DHT22;2334;48.710;9.622;2024-03-23T00:53:38;6.90;99.90
4643;DHT22;2334;48.710;9.622;2024-03-23T00:56:05;6.90;99.90
4643;DHT22;2334;48.710;9.622;2024-03-23T00:58:31;6.80;99.90
4643;DHT22;2334;48.710;9.622;2024-03-23T01:00:58;6.80;99.90
4643;DHT22;2334;48.710;9.622;2024-03-23T01:03:23;6.80;99.90
4643;DHT22;2334;48.710;9.622;2024-03-23T01:05:50;6.70;99.90
4643;DHT22;2334;48.710;9.622;2024-03-23T01:08:18;6.70;99.90
4643;DHT22;2334;48.710;9.622;2024-03-23T01:10:54;6.70;99.90
4643;DHT22;2334;48.710;9.622;2024-03-23T01:13:20;6.70;99.90
4643;DHT22;2334;48.710;9.622;2024-03-23T01:15:48;6.60;99.90
4643;DHT22;2334;48.710;9.622;2024-03-23T01:18:14;6.60;99.90
4643;DHT22;2334;48.710;9.622;2024-03-23T01:20:41;6.60;99.90
4643;DHT22;2334;48.710;9.622;2024-03-23T01:23:07;6.50;99.90
4643;DHT22;2334;48.710;9.622;2024-03-23T01:25:35;6.50;99.90
4643;DHT22;2334;48.710;9.622;2024-03-23T01:28:01;6.50;99.90
4643;DHT22;2334;48.710;9.622;2024-03-23T01:30:28;6.40;99.90
4643;DHT22;2334;48.710;9.622;2024-03-23T01:32:54;6.40;99.90
4643;DHT22;2334;48.710;9.622;2024-03-23T01:35:21;6.20;99.90
4643;DHT22;2334;48.710;9.622;2024-03-23T01:37:47;6.20;99.90
4643;DHT22;2334;48.710;9.622;2024-03-23T01:40:14;6.30;99.90
4643;DHT22;2334;48.710;9.622;2024-03-23T01:42:43;6.20;99.90
4643;DHT22;2334;48.710;9.622;2024-03-23T01:45:21;6.20;99.90
4643;DHT22;2334;48.710;9.622;2024-03-23T01:47:47;6.20;99.90
4643;DHT22;2334;48.710;9.622;2024-03-23T01:50:14;6.20;99.90
4643;DHT22;2334;48.710;9.622;2024-03-23T01:52:40;6.20;99.90
4643;DHT22;2334;48.710;9.622;2024-03-23T01:55:08;6.10;99.90
4643;DHT22;2334;48.710;9.622;2024-03-23T01:57:34;6.20;99.90
4643;DHT22;2334;48.710;9.622;2024-03-23T02:00:03;6.20;99.90
4643;DHT22;2334;48.710;9.622;2024-03-23T02:02:29;6.20;99.90
4643;DHT22;2334;48.710;9.622;2024-03-23T02:04:56;6.10;99.90
4643;DHT22;2334;48.710;9.622;2024-03-23T02:07:22;6.10;99.90
4643;DHT22;2334;48.710;9.622;2024-03-23T02:09:49;6.10;99.90
4643;DHT22;2334;48.710;9.622;2024-03-23T02:12:16;6.10;99.90
4643;DHT22;2334;48.710;9.622;2024-03-23T02:14:44;6.00;99.90
4643;DHT22;2334;48.710;9.622;2024-03-23T02:17:11;6.00;99.90
4643;DHT22;2334;48.710;9.622;2024-03-23T02:19:38;6.00;99.90
4643;DHT22;2334;48.710;9.622;2024-03-23T02:22:04;6.00;99.90
4643;DHT22;2334;48.710;9.622;2024-03-23T02:24:32;6.00;99.90
4643;DHT22;2334;48.710;9.622;2024-03-23T02:26:59;6.00;99.90
4643;DHT22;2334;48.710;9.622;2024-03-23T02:29:26;6.00;99.90
4643;DHT22;2334;48.710;9.622;2024-03-23T02:31:52;6.00;99.90
4643;DHT22;2334;48.710;9.622;2024-03-23T02:34:19;6.00;99.90
4643;DHT22;2334;48.710;9.622;2024-03-23T02:36:45;6.00;99.90
4643;DHT22;2334;48.710;9.622;2024-03-23T02:39:11;6.00;99.90
4643;DHT22;2334;48.710;9.622;2024-03-23T02:41:39;6.10;99.90
4643;DHT22;2334;48.710;9.622;2024-03-23T02:44:06;6.00;99.90
4643;DHT22;2334;48.710;9.622;2024-03-23T02:46:32;5.90;99.90
4643;DHT22;2334;48.710;9.622;2024-03-23T02:48:59;5.90;99.90
4643;DHT22;2334;48.710;9.622;2024-03-23T02:51:25;5.90;99.90
4643;DHT22;2334;48.710;9.622;2024-03-23T02:53:52;5.90;99.90
4643;DHT22;2334;48.710;9.622;2024-03-23T02:56:17;5.90;99.90
4643;DHT22;2334;48.710;9.622;2024-03-23T02:58:46;5.90;99.90
4643;DHT22;2334;48.710;9.622;2024-03-23T03:01:12;5.90;99.90
4643;DHT22;2334;48.710;9.622;2024-03-23T03:03:38;5.90;99.90
4643;DHT22;2334;48.710;9.622;2024-03-23T03:06:04;5.90;99.90
4643;DHT22;2334;48.710;9.622;2024-03-23T03:08:31;5.90;99.90
4643;DHT22;2334;48.710;9.622;2024-03-23T03:10:57;5.90;99.90
4643;DHT22;2334;48.710;9.622;2024-03-23T03:13:24;5.80;99.90
4643;DHT22;2334;48.710;9.622;2024-03-23T03:15:51;5.80;99.90
4643;DHT22;2334;48.710;9.622;2024-03-23T03:18:18;5.70;99.90
4643;DHT22;2334;48.710;9.622;2024-03-23T03:20:45;5.80;99.90
4643;DHT22;2334;48.710;9.622;2024-03-23T03:23:11;5.80;99.90
4643;DHT22;2334;48.710;9.622;2024-03-23T03:25:37;5.90;99.90
4643;DHT22;2334;48.710;9.622;2024-03-23T03:28:05;5.90;99.90
4643;DHT22;2334;48.710;9.622;2024-03-23T03:30:31;5.90;99.90
4643;DHT22;2334;48.710;9.622;2024-03-23T03:32:59;5.90;99.90
4643;DHT22;2334;48.710;9.622;2024-03-23T03:35:25;5.80;99.90
4643;DHT22;2334;48.710;9.622;2024-03-23T03:37:53;5.80;99.90
4643;DHT22;2334;48.710;9.622;2024-03-23T03:40:18;5.90;99.90
4643;DHT22;2334;48.710;9.622;2024-03-23T03:42:45;5.90;99.90
4643;DHT22;2334;48.710;9.622;2024-03-23T03:45:11;5.90;99.90
4643;DHT22;2334;48.710;9.622;2024-03-23T03:47:38;5.90;99.90
4643;DHT22;2334;48.710;9.622;2024-03-23T03:50:06;5.90;99.90
4643;DHT22;2334;48.710;9.622;2024-03-23T03:52:33;5.90;99.90
4643;DHT22;2334;48.710;9.622;2024-03-23T03:55:02;5.90;99.90
4643;DHT22;2334;48.710;9.622;2024-03-23T03:57:29;5.90;99.90
4643;DHT22;2334;48.710;9.622;2024-03-23T03:59:55;5.90;99.90
4643;DHT22;2334;48.710;9.622;2024-03-23T04:02:22;5.90;99.90
4643;DHT22;2334;48.710;9.622;2024-03-23T04:04:47;5.90;99.90
4643;DHT22;2334;48.710;9.622;2024-03-23T04:07:16;5.90;99.90
4643;DHT22;2334;48.710;9.622;2024-03-23T04:09:43;5.90;99.90
4643;DHT22;2334;48.710;9.622;2024-03-23T04:12:09;5.80;99.90
4643;DHT22;2334;48.710;9.622;2024-03-23T04:14:35;5.80;99.90
4643;DHT22;2334;48.710;9.622;2024-03-23T04:17:02;5.70;99.90
4643;DHT22;2334;48.710;9.622;2024-03-23T04:19:28;5.70;99.90
4643;DHT22;2334;48.710;9.622;2024-03-23T04:21:55;5.70;99.90
4643;DHT22;2334;48.710;9.622;2024-03-23T04:24:23;5.60;99.90
4643;DHT22;2334;48.710;9.622;2024-03-23T04:26:51;5.60;99.90
4643;DHT22;2334;48.710;9.622;2024-03-23T04:29:17;5.50;99.90
4643;DHT22;2334;48.710;9.622;2024-03-23T04:31:44;5.50;99.90
4643;DHT22;2334;48.710;9.622;2024-03-23T04:34:10;5.40;99.90
4643;DHT22;2334;48.710;9.622;2024-03-23T04:36:37;5.40;99.90
4643;DHT22;2334;48.710;9.622;2024-03-23T04:39:03;5.40;99.90
4643;DHT22;2334;48.710;9.622;2024-03-23T04:41:31;5.30;99.90
4643;DHT22;2334;48.710;9.622;2024-03-23T04:43:58;5.30;99.90
4643;DHT22;2334;48.710;9.622;2024-03-23T04:46:24;5.30;99.90
4643;DHT22;2334;48.710;9.622;2024-03-23T04:48:51;5.30;99.90
4643;DHT22;2334;48.710;9.622;2024-03-23T04:51:22;5.30;99.90
4643;DHT22;2334;48.710;9.622;2024-03-23T04:53:49;5.30;99.90
4643;DHT22;2334;48.710;9.622;2024-03-23T04:56:17;5.30;99.90
4643;DHT22;2334;48.710;9.622;2024-03-23T04:58:44;5.30;99.90
4643;DHT22;2334;48.710;9.622;2024-03-23T05:01:11;5.30;99.90
4643;DHT22;2334;48.710;9.622;2024-03-23T05:03:37;5.30;99.90
4643;DHT22;2334;48.710;9.622;2024-03-23T05:06:04;5.30;99.90
4643;DHT22;2334;48.710;9.622;2024-03-23T05:08:31;5.30;99.90
4643;DHT22;2334;48.710;9.622;2024-03-23T05:10:57;5.40;99.90
4643;DHT22;2334;48.710;9.622;2024-03-23T05:13:23;5.40;99.90
4643;DHT22;2334;48.710;9.622;2024-03-23T05:15:55;5.40;99.90
4643;DHT22;2334;48.710;9.622;2024-03-23T05:18:20;5.50;99.90
4643;DHT22;2334;48.710;9.622;2024-03-23T05:20:47;5.60;99.90
4643;DHT22;2334;48.710;9.622;2024-03-23T05:23:13;5.70;99.90
4643;DHT22;2334;48.710;9.622;2024-03-23T05:25:41;5.80;99.90
4643;DHT22;2334;48.710;9.622;2024-03-23T05:28:06;5.80;99.90
4643;DHT22;2334;48.710;9.622;2024-03-23T05:30:33;5.70;99.90
4643;DHT22;2334;48.710;9.622;2024-03-23T05:33:00;5.90;99.90
4643;DHT22;2334;48.710;9.622;2024-03-23T05:35:27;6.10;99.90
4643;DHT22;2334;48.710;9.622;2024-03-23T05:37:53;6.30;99.90
4643;DHT22;2334;48.710;9.622;2024-03-23T05:40:20;6.80;99.90
4643;DHT22;2334;48.710;9.622;2024-03-23T05:42:46;7.60;99.90
4643;DHT22;2334;48.710;9.622;2024-03-23T05:45:13;8.30;99.90
4643;DHT22;2334;48.710;9.622;2024-03-23T05:47:39;8.70;99.90
4643;DHT22;2334;48.710;9.622;2024-03-23T05:50:08;8.90;99.90
4643;DHT22;2334;48.710;9.622;2024-03-23T05:52:36;9.00;99.90
4643;DHT22;2334;48.710;9.622;2024-03-23T05:55:03;9.20;99.90
4643;DHT22;2334;48.710;9.622;2024-03-23T05:57:29;9.30;99.90
4643;DHT22;2334;48.710;9.622;2024-03-23T05:59:56;9.40;99.90
4643;DHT22;2334;48.710;9.622;2024-03-23T06:02:22;9.40;99.90
4643;DHT22;2334;48.710;9.622;2024-03-23T06:04:49;9.50;99.90
4643;DHT22;2334;48.710;9.622;2024-03-23T06:07:16;9.50;99.90
4643;DHT22;2334;48.710;9.622;2024-03-23T06:09:43;9.50;99.90
4643;DHT22;2334;48.710;9.622;2024-03-23T06:12:09;9.50;99.90
4643;DHT22;2334;48.710;9.622;2024-03-23T06:14:36;9.50;99.90
4643;DHT22;2334;48.710;9.622;2024-03-23T06:17:02;9.50;99.90
4643;DHT22;2334;48.710;9.622;2024-03-23T06:19:29;9.50;99.90
4643;DHT22;2334;48.710;9.622;2024-03-23T06:21:55;9.50;99.90
4643;DHT22;2334;48.710;9.622;2024-03-23T06:24:23;9.40;99.90
4643;DHT22;2334;48.710;9.622;2024-03-23T06:26:50;9.40;99.90
4643;DHT22;2334;48.710;9.622;2024-03-23T06:29:17;9.40;99.90
4643;DHT22;2334;48.710;9.622;2024-03-23T06:31:43;9.40;99.90
4643;DHT22;2334;48.710;9.622;2024-03-23T06:34:09;9.30;99.90
4643;DHT22;2334;48.710;9.622;2024-03-23T06:36:35;9.30;99.90
4643;DHT22;2334;48.710;9.622;2024-03-23T06:39:04;9.30;99.90
4643;DHT22;2334;48.710;9.622;2024-03-23T06:41:31;9.30;99.90
4643;DHT22;2334;48.710;9.622;2024-03-23T06:43:58;9.20;99.90
4643;DHT22;2334;48.710;9.622;2024-03-23T06:46:24;9.30;99.90
4643;DHT22;2334;48.710;9.622;2024-03-23T06:48:50;9.30;99.90
4643;DHT22;2334;48.710;9.622;2024-03-23T06:51:16;9.40;99.90
4643;DHT22;2334;48.710;9.622;2024-03-23T06:53:43;9.40;99.90
4643;DHT22;2334;48.710;9.622;2024-03-23T06:56:09;9.40;99.90
4643;DHT22;2334;48.710;9.622;2024-03-23T06:58:38;9.30;99.90
4643;DHT22;2334;48.710;9.622;2024-03-23T07:01:04;9.40;99.90
4643;DHT22;2334;48.710;9.622;2024-03-23T07:03:31;9.40;99.90
4643;DHT22;2334;48.710;9.622;2024-03-23T07:05:58;9.40;99.90
4643;DHT22;2334;48.710;9.622;2024-03-23T07:08:25;9.30;99.90
4643;DHT22;2334;48.710;9.622;2024-03-23T07:10:50;9.30;99.90
4643;DHT22;2334;48.710;9.622;2024-03-23T07:13:17;9.30;99.90
4643;DHT22;2334;48.710;9.622;2024-03-23T07:15:51;9.30;99.90
4643;DHT22;2334;48.710;9.622;2024-03-23T07:18:18;9.30;99.90
4643;DHT22;2334;48.710;9.622;2024-03-23T07:20:52;9.30;99.90
4643;DHT22;2334;48.710;9.622;2024-03-23T07:23:19;9.30;99.90
4643;DHT22;2334;48.710;9.622;2024-03-23T07:25:45;9.30;99.90
4643;DHT22;2334;48.710;9.622;2024-03-23T07:28:22;9.20;99.90
4643;DHT22;2334;48.710;9.622;2024-03-23T07:31:02;9.20;99.90
4643;DHT22;2334;48.710;9.622;2024-03-23T07:33:29;9.30;99.90
4643;DHT22;2334;48.710;9.622;2024-03-23T07:35:55;9.20;99.90
4643;DHT22;2334;48.710;9.622;2024-03-23T07:38:23;9.20;99.90
4643;DHT22;2334;48.710;9.622;2024-03-23T07:40:49;9.20;99.90
4643;DHT22;2334;48.710;9.622;2024-03-23T07:43:20;9.20;99.90
4643;DHT22;2334;48.710;9.622;2024-03-23T07:45:52;9.30;99.90
4643;DHT22;2334;48.710;9.622;2024-03-23T07:48:21;9.30;99.90
4643;DHT22;2334;48.710;9.622;2024-03-23T07:50:57;9.40;99.90
4643;DHT22;2334;48.710;9.622;2024-03-23T07:53:24;9.40;99.90
4643;DHT22;2334;48.710;9.622;2024-03-23T07:55:54;9.40;99.90
4643;DHT22;2334;48.710;9.622;2024-03-23T07:58:21;9.30;99.90
4643;DHT22;2334;48.710;9.622;2024-03-23T08:00:47;9.40;99.90
4643;DHT22;2334;48.710;9.622;2024-03-23T08:03:15;9.40;99.90
4643;DHT22;2334;48.710;9.622;2024-03-23T08:05:41;9.40;99.90
4643;DHT22;2334;48.710;9.622;2024-03-23T08:08:08;9.40;99.90
4643;DHT22;2334;48.710;9.622;2024-03-23T08:10:34;9.30;99.90
4643;DHT22;2334;48.710;9.622;2024-03-23T08:13:01;9.20;99.90
4643;DHT22;2334;48.710;9.622;2024-03-23T08:15:29;9.30;99.90
4643;DHT22;2334;48.710;9.622;2024-03-23T08:17:58;9.40;99.90
4643;DHT22;2334;48.710;9.622;2024-03-23T08:20:26;9.40;99.90
4643;DHT22;2334;48.710;9.622;2024-03-23T08:22:52;9.30;99.90
4643;DHT22;2334;48.710;9.622;2024-03-23T08:25:19;9.30;99.90
4643;DHT22;2334;48.710;9.622;2024-03-23T08:27:45;9.10;99.90
4643;DHT22;2334;48.710;9.622;2024-03-23T08:30:13;9.10;99.90
4643;DHT22;2334;48.710;9.622;2024-03-23T08:32:39;9.20;99.90
4643;DHT22;2334;48.710;9.622;2024-03-23T08:35:06;9.10;99.90
4643;DHT22;2334;48.710;9.622;2024-03-23T08:37:34;8.90;99.90
4643;DHT22;2334;48.710;9.622;2024-03-23T08:40:01;8.80;99.90
4643;DHT22;2334;48.710;9.622;2024-03-23T08:42:27;8.80;99.90
4643;DHT22;2334;48.710;9.622;2024-03-23T08:44:54;8.70;99.90
4643;DHT22;2334;48.710;9.622;2024-03-23T08:47:20;8.70;99.90
4643;DHT22;2334;48.710;9.622;2024-03-23T08:49:47;8.70;99.90
4643;DHT22;2334;48.710;9.622;2024-03-23T08:52:13;8.70;99.90
4643;DHT22;2334;48.710;9.622;2024-03-23T08:54:41;8.70;99.90
4643;DHT22;2334;48.710;9.622;2024-03-23T08:57:07;8.90;99.90
4643;DHT22;2334;48.710;9.622;2024-03-23T08:59:34;9.00;99.90
4643;DHT22;2334;48.710;9.622;2024-03-23T09:02:00;9.10;99.90
4643;DHT22;2334;48.710;9.622;2024-03-23T09:04:27;9.40;99.90
4643;DHT22;2334;48.710;9.622;2024-03-23T09:06:53;9.30;99.90
4643;DHT22;2334;48.710;9.622;2024-03-23T09:09:20;9.10;99.90
4643;DHT22;2334;48.710;9.622;2024-03-23T09:11:47;8.70;99.90
4643;DHT22;2334;48.710;9.622;2024-03-23T09:14:14;8.50;99.90
4643;DHT22;2334;48.710;9.622;2024-03-23T09:16:40;8.40;99.90
4643;DHT22;2334;48.710;9.622;2024-03-23T09:19:07;8.40;99.90
4643;DHT22;2334;48.710;9.622;2024-03-23T09:21:33;8.30;99.90
4643;DHT22;2334;48.710;9.622;2024-03-23T09:24:00;8.20;99.90
4643;DHT22;2334;48.710;9.622;2024-03-23T09:26:25;8.20;99.90
4643;DHT22;2334;48.710;9.622;2024-03-23T09:28:54;8.30;99.90
4643;DHT22;2334;48.710;9.622;2024-03-23T09:31:20;8.20;99.90
4643;DHT22;2334;48.710;9.622;2024-03-23T09:33:47;8.00;99.90
4643;DHT22;2334;48.710;9.622;2024-03-23T09:36:13;7.90;99.90
4643;DHT22;2334;48.710;9.622;2024-03-23T09:38:41;7.90;99.90
4643;DHT22;2334;48.710;9.622;2024-03-23T09:41:07;7.70;99.90
4643;DHT22;2334;48.710;9.622;2024-03-23T09:43:34;7.60;99.90
4643;DHT22;2334;48.710;9.622;2024-03-23T09:46:03;7.50;99.90
4643;DHT22;2334;48.710;9.622;2024-03-23T09:48:31;7.50;99.90
4643;DHT22;2334;48.710;9.622;2024-03-23T09:50:58;7.60;99.90
4643;DHT22;2334;48.710;9.622;2024-03-23T09:53:28;7.60;99.90
4643;DHT22;2334;48.710;9.622;2024-03-23T09:55:54;7.70;99.90
4643;DHT22;2334;48.710;9.622;2024-03-23T09:58:23;7.70;99.90
4643;DHT22;2334;48.710;9.622;2024-03-23T10:00:49;7.80;99.90
4643;DHT22;2334;48.710;9.622;2024-03-23T10:03:17;7.90;99.90
4643;DHT22;2334;48.710;9.622;2024-03-23T10:05:43;8.40;99.90
4643;DHT22;2334;48.710;9.622;2024-03-23T10:08:19;8.80;99.90
4643;DHT22;2334;48.710;9.622;2024-03-23T10:10:45;9.10;99.90
4643;DHT22;2334;48.710;9.622;2024-03-23T10:13:24;9.40;99.90
4643;DHT22;2334;48.710;9.622;2024-03-23T10:15:55;9.60;99.90
4643;DHT22;2334;48.710;9.622;2024-03-23T10:18:24;10.20;99.90
4643;DHT22;2334;48.710;9.622;2024-03-23T10:21:08;10.70;99.90
4643;DHT22;2334;48.710;9.622;2024-03-23T10:23:37;10.70;99.90
4643;DHT22;2334;48.710;9.622;2024-03-23T10:26:15;10.60;99.90
4643;DHT22;2334;48.710;9.622;2024-03-23T10:28:56;10.60;99.90
4643;DHT22;2334;48.710;9.622;2024-03-23T10:31:23;10.50;99.90
4643;DHT22;2334;48.710;9.622;2024-03-23T10:33:52;10.20;99.90
4643;DHT22;2334;48.710;9.622;2024-03-23T10:36:20;10.00;99.90
4643;DHT22;2334;48.710;9.622;2024-03-23T10:38:47;9.90;99.90
4643;DHT22;2334;48.710;9.622;2024-03-23T10:41:14;10.00;99.90
4643;DHT22;2334;48.710;9.622;2024-03-23T10:43:43;10.30;99.90
4643;DHT22;2334;48.710;9.622;2024-03-23T10:46:10;10.30;99.90
4643;DHT22;2334;48.710;9.622;2024-03-23T10:48:37;10.30;99.90
4643;DHT22;2334;48.710;9.622;2024-03-23T10:51:06;10.70;99.90
4643;DHT22;2334;48.710;9.622;2024-03-23T10:53:34;11.00;99.90
4643;DHT22;2334;48.710;9.622;2024-03-23T10:56:00;10.80;99.90
4643;DHT22;2334;48.710;9.622;2024-03-23T10:58:30;10.60;99.90
4643;DHT22;2334;48.710;9.622;2024-03-23T11:00:57;10.30;99.90
4643;DHT22;2334;48.710;9.622;2024-03-23T11:03:35;10.00;99.90
4643;DHT22;2334;48.710;9.622;2024-03-23T11:06:02;9.90;99.90
4643;DHT22;2334;48.710;9.622;2024-03-23T11:08:33;9.80;99.90
4643;DHT22;2334;48.710;9.622;2024-03-23T11:11:16;9.70;99.90
4643;DHT22;2334;48.710;9.622;2024-03-23T11:13:45;9.80;99.90
4643;DHT22;2334;48.710;9.622;2024-03-23T11:16:15;9.80;99.90
4643;DHT22;2334;48.710;9.622;2024-03-23T11:18:42;9.90;99.90
4643;DHT22;2334;48.710;9.622;2024-03-23T11:21:09;10.10;99.90
4643;DHT22;2334;48.710;9.622;2024-03-23T11:23:38;10.10;99.90
4643;DHT22;2334;48.710;9.622;2024-03-23T11:26:08;10.20;99.90
4643;DHT22;2334;48.710;9.622;2024-03-23T11:28:35;10.00;99.90
4643;DHT22;2334;48.710;9.622;2024-03-23T11:31:01;9.70;99.90
4643;DHT22;2334;48.710;9.622;2024-03-23T11:33:28;9.10;99.90
4643;DHT22;2334;48.710;9.622;2024-03-23T11:35:54;8.50;99.90
4643;DHT22;2334;48.710;9.622;2024-03-23T11:38:22;8.00;99.90
4643;DHT22;2334;48.710;9.622;2024-03-23T11:40:49;7.70;99.90
4643;DHT22;2334;48.710;9.622;2024-03-23T11:43:17;7.40;99.90
4643;DHT22;2334;48.710;9.622;2024-03-23T11:45:45;7.10;99.90
4643;DHT22;2334;48.710;9.622;2024-03-23T11:48:14;7.00;99.90
4643;DHT22;2334;48.710;9.622;2024-03-23T11:50:41;7.00;99.90
4643;DHT22;2334;48.710;9.622;2024-03-23T11:53:13;7.10;99.90
4643;DHT22;2334;48.710;9.622;2024-03-23T11:55:46;7.20;99.90
4643;DHT22;2334;48.710;9.622;2024-03-23T11:58:16;7.30;99.90
4643;DHT22;2334;48.710;9.622;2024-03-23T12:00:43;7.20;99.90
4643;DHT22;2334;48.710;9.622;2024-03-23T12:03:16;7.30;99.90
4643;DHT22;2334;48.710;9.622;2024-03-23T12:05:48;7.20;99.90
4643;DHT22;2334;48.710;9.622;2024-03-23T12:08:19;7.20;99.90
4643;DHT22;2334;48.710;9.622;2024-03-23T12:10:48;7.30;99.90
4643;DHT22;2334;48.710;9.622;2024-03-23T12:13:18;7.20;99.90
4643;DHT22;2334;48.710;9.622;2024-03-23T12:15:45;7.00;99.90
4643;DHT22;2334;48.710;9.622;2024-03-23T12:18:13;7.10;99.90
4643;DHT22;2334;48.710;9.622;2024-03-23T12:20:39;7.20;99.90
4643;DHT22;2334;48.710;9.622;2024-03-23T12:23:10;7.40;99.90
4643;DHT22;2334;48.710;9.622;2024-03-23T12:25:37;7.50;99.90
4643;DHT22;2334;48.710;9.622;2024-03-23T12:28:05;7.30;99.90
4643;DHT22;2334;48.710;9.622;2024-03-23T12:30:34;7.50;99.90
4643;DHT22;2334;48.710;9.622;2024-03-23T12:33:01;7.40;99.90
4643;DHT22;2334;48.710;9.622;2024-03-23T12:35:27;7.50;99.90
4643;DHT22;2334;48.710;9.622;2024-03-23T12:37:54;7.20;99.90
4643;DHT22;2334;48.710;9.622;2024-03-23T12:40:19;7.20;99.90
4643;DHT22;2334;48.710;9.622;2024-03-23T12:42:46;7.40;99.90
4643;DHT22;2334;48.710;9.622;2024-03-23T12:45:12;7.60;99.90
4643;DHT22;2334;48.710;9.622;2024-03-23T12:47:40;7.90;99.90
4643;DHT22;2334;48.710;9.622;2024-03-23T12:50:07;8.00;99.90
4643;DHT22;2334;48.710;9.622;2024-03-23T12:52:35;8.00;99.90
4643;DHT22;2334;48.710;9.622;2024-03-23T12:55:01;8.00;99.90
4643;DHT22;2334;48.710;9.622;2024-03-23T12:57:28;8.00;99.90
4643;DHT22;2334;48.710;9.622;2024-03-23T12:59:53;8.00;99.90
4643;DHT22;2334;48.710;9.622;2024-03-23T13:02:21;8.00;99.90
4643;DHT22;2334;48.710;9.622;2024-03-23T13:04:49;8.00;99.90
4643;DHT22;2334;48.710;9.622;2024-03-23T13:07:17;8.10;99.90
4643;DHT22;2334;48.710;9.622;2024-03-23T13:09:43;8.10;99.90
4643;DHT22;2334;48.710;9.622;2024-03-23T13:12:10;8.20;99.90
4643;DHT22;2334;48.710;9.622;2024-03-23T13:14:37;8.30;99.90
4643;DHT22;2334;48.710;9.622;2024-03-23T13:17:05;8.70;99.90
4643;DHT22;2334;48.710;9.622;2024-03-23T13:19:31;9.30;99.90
4643;DHT22;2334;48.710;9.622;2024-03-23T13:22:00;9.50;99.90
4643;DHT22;2334;48.710;9.622;2024-03-23T13:24:27;9.40;99.90
4643;DHT22;2334;48.710;9.622;2024-03-23T13:26:55;9.10;99.90
4643;DHT22;2334;48.710;9.622;2024-03-23T13:29:21;9.30;99.90
4643;DHT22;2334;48.710;9.622;2024-03-23T13:31:49;9.70;99.90
4643;DHT22;2334;48.710;9.622;2024-03-23T13:34:15;9.60;99.90
4643;DHT22;2334;48.710;9.622;2024-03-23T13:36:43;9.60;99.90
4643;DHT22;2334;48.710;9.622;2024-03-23T13:39:10;9.40;99.90
4643;DHT22;2334;48.710;9.622;2024-03-23T13:41:38;9.10;99.90
4643;DHT22;2334;48.710;9.622;2024-03-23T13:44:05;8.90;99.90
4643;DHT22;2334;48.710;9.622;2024-03-23T13:46:32;8.70;99.90
4643;DHT22;2334;48.710;9.622;2024-03-23T13:48:58;8.80;99.90
4643;DHT22;2334;48.710;9.622;2024-03-23T13:51:25;8.70;99.90
4643;DHT22;2334;48.710;9.622;2024-03-23T13:53:52;9.10;99.90
4643;DHT22;2334;48.710;9.622;2024-03-23T13:56:21;9.20;99.90
4643;DHT22;2334;48.710;9.622;2024-03-23T13:58:47;9.10;99.90
4643;DHT22;2334;48.710;9.622;2024-03-23T14:01:14;9.40;99.90
4643;DHT22;2334;48.710;9.622;2024-03-23T14:03:40;9.40;99.90
4643;DHT22;2334;48.710;9.622;2024-03-23T14:06:07;9.40;99.90
4643;DHT22;2334;48.710;9.622;2024-03-23T14:08:34;9.30;99.90
4643;DHT22;2334;48.710;9.622;2024-03-23T14:11:02;9.40;99.90
4643;DHT22;2334;48.710;9.622;2024-03-23T14:13:30;9.40;99.90
4643;DHT22;2334;48.710;9.622;2024-03-23T14:15:58;9.40;99.90
4643;DHT22;2334;48.710;9.622;2024-03-23T14:18:24;9.40;99.90
4643;DHT22;2334;48.710;9.622;2024-03-23T14:20:52;9.50;99.90
4643;DHT22;2334;48.710;9.622;2024-03-23T14:23:18;9.50;99.90
4643;DHT22;2334;48.710;9.622;2024-03-23T14:25:45;9.60;99.90
4643;DHT22;2334;48.710;9.622;2024-03-23T14:28:11;9.80;99.90
4643;DHT22;2334;48.710;9.622;2024-03-23T14:30:42;10.00;99.90
4643;DHT22;2334;48.710;9.622;2024-03-23T14:33:08;10.20;99.90
4643;DHT22;2334;48.710;9.622;2024-03-23T14:35:35;10.40;99.90
4643;DHT22;2334;48.710;9.622;2024-03-23T14:38:01;10.30;99.90
4643;DHT22;2334;48.710;9.622;2024-03-23T14:40:28;10.30;99.90
4643;DHT22;2334;48.710;9.622;2024-03-23T14:42:55;10.20;99.90
4643;DHT22;2334;48.710;9.622;2024-03-23T14:45:21;10.20;99.90
4643;DHT22;2334;48.710;9.622;2024-03-23T14:47:50;10.10;99.90
4643;DHT22;2334;48.710;9.622;2024-03-23T14:50:17;9.50;99.90
4643;DHT22;2334;48.710;9.622;2024-03-23T14:52:44;8.90;99.90
4643;DHT22;2334;48.710;9.622;2024-03-23T14:55:11;8.20;99.90
4643;DHT22;2334;48.710;9.622;2024-03-23T14:57:37;8.00;99.90
4643;DHT22;2334;48.710;9.622;2024-03-23T15:00:07;8.20;99.90
4643;DHT22;2334;48.710;9.622;2024-03-23T15:02:33;8.40;99.90
4643;DHT22;2334;48.710;9.622;2024-03-23T15:05:03;8.70;99.90
4643;DHT22;2334;48.710;9.622;2024-03-23T15:07:29;8.70;99.90
4643;DHT22;2334;48.710;9.622;2024-03-23T15:09:56;8.80;99.90
4643;DHT22;2334;48.710;9.622;2024-03-23T15:12:22;9.20;99.90
4643;DHT22;2334;48.710;9.622;2024-03-23T15:14:49;8.90;99.90
4643;DHT22;2334;48.710;9.622;2024-03-23T15:17:15;9.00;99.90
4643;DHT22;2334;48.710;9.622;2024-03-23T15:19:42;8.60;99.90
4643;DHT22;2334;48.710;9.622;2024-03-23T15:22:09;8.50;99.90
4643;DHT22;2334;48.710;9.622;2024-03-23T15:24:36;8.40;99.90
4643;DHT22;2334;48.710;9.622;2024-03-23T15:27:02;8.30;99.90
4643;DHT22;2334;48.710;9.622;2024-03-23T15:29:29;8.30;99.90
4643;DHT22;2334;48.710;9.622;2024-03-23T15:31:55;8.20;99.90
4643;DHT22;2334;48.710;9.622;2024-03-23T15:34:22;8.00;99.90
4643;DHT22;2334;48.710;9.622;2024-03-23T15:36:48;8.10;99.90
4643;DHT22;2334;48.710;9.622;2024-03-23T15:39:17;8.10;99.90
4643;DHT22;2334;48.710;9.622;2024-03-23T15:41:45;8.10;99.90
4643;DHT22;2334;48.710;9.622;2024-03-23T15:44:12;8.60;99.90
4643;DHT22;2334;48.710;9.622;2024-03-23T15:46:38;9.20;99.90
4643;DHT22;2334;48.710;9.622;2024-03-23T15:49:05;9.60;99.90
4643;DHT22;2334;48.710;9.622;2024-03-23T15:51:31;10.20;99.90
4643;DHT22;2334;48.710;9.622;2024-03-23T15:54:00;10.50;99.90
4643;DHT22;2334;48.710;9.622;2024-03-23T15:56:29;10.40;99.90
4643;DHT22;2334;48.710;9.622;2024-03-23T15:58:56;10.50;99.90
4643;DHT22;2334;48.710;9.622;2024-03-23T16:01:26;11.00;99.90
4643;DHT22;2334;48.710;9.622;2024-03-23T16:03:53;10.80;99.90
4643;DHT22;2334;48.710;9.622;2024-03-23T16:06:19;9.80;99.90
4643;DHT22;2334;48.710;9.622;2024-03-23T16:08:46;8.80;99.90
4643;DHT22;2334;48.710;9.622;2024-03-23T16:11:11;8.30;99.90
4643;DHT22;2334;48.710;9.622;2024-03-23T16:13:40;8.10;99.90
4643;DHT22;2334;48.710;9.622;2024-03-23T16:16:06;8.00;99.90
4643;DHT22;2334;48.710;9.622;2024-03-23T16:18:34;7.70;99.90
4643;DHT22;2334;48.710;9.622;2024-03-23T16:21:02;7.70;99.90
4643;DHT22;2334;48.710;9.622;2024-03-23T16:23:31;7.70;99.90
4643;DHT22;2334;48.710;9.622;2024-03-23T16:25:57;7.70;99.90
4643;DHT22;2334;48.710;9.622;2024-03-23T16:28:25;7.60;99.90
4643;DHT22;2334;48.710;9.622;2024-03-23T16:30:57;7.60;99.90
4643;DHT22;2334;48.710;9.622;2024-03-23T16:33:25;7.70;99.90
4643;DHT22;2334;48.710;9.622;2024-03-23T16:35:58;7.80;99.90
4643;DHT22;2334;48.710;9.622;2024-03-23T16:38:25;7.50;99.90
4643;DHT22;2334;48.710;9.622;2024-03-23T16:40:58;7.40;99.90
4643;DHT22;2334;48.710;9.622;2024-03-23T16:43:26;7.20;99.90
4643;DHT22;2334;48.710;9.622;2024-03-23T16:46:07;7.20;99.90
4643;DHT22;2334;48.710;9.622;2024-03-23T16:48:36;7.20;99.90
4643;DHT22;2334;48.710;9.622;2024-03-23T16:51:04;7.10;99.90
4643;DHT22;2334;48.710;9.622;2024-03-23T16:53:31;7.00;99.90
4643;DHT22;2334;48.710;9.622;2024-03-23T16:55:58;7.10;99.90
4643;DHT22;2334;48.710;9.622;2024-03-23T16:58:26;7.00;99.90
4643;DHT22;2334;48.710;9.622;2024-03-23T17:00:52;7.00;99.90
4643;DHT22;2334;48.710;9.622;2024-03-23T17:03:23;7.00;99.90
4643;DHT22;2334;48.710;9.622;2024-03-23T17:05:49;7.00;99.90
4643;DHT22;2334;48.710;9.622;2024-03-23T17:08:16;6.90;99.90
4643;DHT22;2334;48.710;9.622;2024-03-23T17:10:42;7.00;99.90